createdAt,value
2022-08-10T00:01:03.867Z,99463.53
2022-08-10T00:03:08.024Z,99465.53
2022-08-10T00:05:10.807Z,99472.75
2022-08-10T00:07:13.510Z,99479.00
2022-08-10T00:09:16.249Z,99502.09
2022-08-10T00:11:19.267Z,99494.47
2022-08-10T00:13:23.545Z,99479.72
2022-08-10T00:15:52.702Z,99470.13
2022-08-10T00:17:49.263Z,99507.97
2022-08-10T00:20:03.138Z,99513.16
2022-08-10T00:22:07.124Z,99486.41
2022-08-10T00:24:09.782Z,99479.63
2022-08-10T00:26:12.472Z,99488.78
2022-08-10T00:28:15.270Z,99499.47
2022-08-10T00:30:18.003Z,99504.22
2022-08-10T00:32:20.915Z,99514.09
2022-08-10T00:34:23.982Z,99500.88
2022-08-10T00:36:26.683Z,99490.94
2022-08-10T00:38:37.193Z,99480.22
2022-08-10T00:40:39.858Z,99490.22
2022-08-10T00:42:42.747Z,99492.56
2022-08-10T00:44:49.215Z,99493.34
2022-08-10T00:46:51.872Z,99477.41
2022-08-10T00:49:00.426Z,99478.25
2022-08-10T00:51:03.788Z,99490.63
2022-08-10T00:53:06.559Z,99494.16
2022-08-10T00:55:09.411Z,99493.78
2022-08-10T00:57:17.836Z,99495.81
2022-08-10T00:59:21.488Z,99497.41
2022-08-10T01:02:09.664Z,99501.41
2022-08-10T01:04:39.651Z,99505.41
2022-08-10T01:06:27.440Z,99506.97
2022-08-10T01:08:40.144Z,99510.56
2022-08-10T01:10:51.733Z,99512.97
2022-08-10T01:13:08.777Z,99503.84
2022-08-10T01:15:21.636Z,99509.03
2022-08-10T01:17:49.679Z,99502.25
2022-08-10T01:20:09.467Z,99509.03
2022-08-10T01:22:11.955Z,99502.69
2022-08-10T01:24:17.122Z,99504.66
2022-08-10T01:26:57.332Z,99509.03
2022-08-10T01:29:37.626Z,99513.38
2022-08-10T01:31:50.016Z,99495.03
2022-08-10T01:34:02.006Z,99491.47
2022-08-10T01:36:20.966Z,99493.84
2022-08-10T01:38:40.591Z,99488.19
2022-08-10T01:40:53.930Z,99493.34
2022-08-10T01:43:08.641Z,99500.88
2022-08-10T01:45:14.464Z,99505.22
2022-08-10T01:47:37.998Z,99503.59
2022-08-10T01:49:40.688Z,99508.44
2022-08-10T01:51:47.914Z,99505.31
2022-08-10T01:53:56.539Z,99502.91
2022-08-10T01:56:00.823Z,99506.03
2022-08-10T01:58:05.767Z,99506.88
2022-08-10T02:00:09.281Z,99506.09
2022-08-10T02:02:15.591Z,99505.31
2022-08-10T02:04:21.140Z,99510.53
2022-08-10T02:06:27.025Z,99504.19
2022-08-10T02:08:32.828Z,99507.41
2022-08-10T02:10:39.771Z,99495.47
2022-08-10T02:12:43.804Z,99497.16
2022-08-10T02:15:06.323Z,99492.78
2022-08-10T02:17:57.656Z,99499.63
2022-08-10T02:19:39.704Z,99500.84
2022-08-10T02:22:15.372Z,99503.28
2022-08-10T02:24:08.936Z,99506.91
2022-08-10T02:26:13.215Z,99511.34
2022-08-10T02:28:27.063Z,99509.03
2022-08-10T02:30:34.471Z,99512.66
2022-08-10T02:32:38.876Z,99513.13
2022-08-10T02:34:42.767Z,99517.97
2022-08-10T02:36:52.246Z,99513.63
2022-08-10T02:39:01.068Z,99514.06
2022-08-10T02:45:03.058Z,99514.47
2022-08-10T02:45:27.222Z,99504.13
2022-08-10T02:46:22.449Z,99510.09
2022-08-10T02:48:37.925Z,99512.94
2022-08-10T02:50:43.406Z,99503.34
2022-08-10T02:52:51.113Z,99499.38
2022-08-10T02:55:11.265Z,99491.44
2022-08-10T02:57:29.354Z,99493.84
2022-08-10T02:59:44.735Z,99494.59
2022-08-10T03:01:50.131Z,99501.34
2022-08-10T03:04:00.205Z,99497.38
2022-08-10T03:06:10.978Z,99500.59
2022-08-10T03:08:18.638Z,99496.59
2022-08-10T03:10:30.864Z,99495.81
2022-08-10T03:12:38.768Z,99497.44
2022-08-10T03:14:43.411Z,99502.22
2022-08-10T03:16:47.932Z,99503.00
2022-08-10T03:18:53.131Z,99499.81
2022-08-10T03:20:57.438Z,99495.81
2022-08-10T03:23:01.792Z,99495.03
2022-08-10T03:25:05.083Z,99491.00
2022-08-10T03:27:08.587Z,99488.56
2022-08-10T03:29:11.737Z,99499.00
2022-08-10T03:31:14.446Z,99509.03
2022-08-10T03:33:18.274Z,99508.66
2022-08-10T03:35:21.990Z,99505.47
2022-08-10T03:37:24.799Z,99512.69
2022-08-10T03:39:27.869Z,99500.25
2022-08-10T03:41:55.732Z,99505.09
2022-08-10T03:44:00.655Z,99502.25
2022-08-10T03:46:08.179Z,99500.63
2022-08-10T03:48:12.157Z,99503.00
2022-08-10T03:50:27.976Z,99513.31
2022-08-10T03:52:39.707Z,99505.69
2022-08-10T03:54:43.216Z,99503.19
2022-08-10T03:56:46.442Z,99504.72
2022-08-10T03:58:49.353Z,99516.25
2022-08-10T04:00:52.836Z,99517.47
2022-08-10T04:02:56.382Z,99516.66
2022-08-10T04:04:59.178Z,99519.88
2022-08-10T04:07:03.815Z,99523.53
2022-08-10T04:09:06.586Z,99518.31
2022-08-10T04:11:10.506Z,99522.69
2022-08-10T04:13:13.153Z,99524.66
2022-08-10T04:15:15.765Z,99523.88
2022-08-10T04:17:18.533Z,99517.38
2022-08-10T04:19:49.367Z,99532.22
2022-08-10T04:22:05.293Z,99525.00
2022-08-10T04:24:11.105Z,99526.91
2022-08-10T04:26:29.930Z,99531.28
2022-08-10T04:28:33.003Z,99534.03
2022-08-10T04:30:36.566Z,99527.13
2022-08-10T04:32:41.118Z,99539.38
2022-08-10T04:34:46.014Z,99535.22
2022-08-10T04:36:51.735Z,99534.00
2022-08-10T04:38:55.763Z,99533.50
2022-08-10T04:40:58.876Z,99533.00
2022-08-10T04:43:11.218Z,99539.47
2022-08-10T04:45:15.347Z,99544.28
2022-08-10T04:47:51.209Z,99550.94
2022-08-10T04:49:56.297Z,99557.63
2022-08-10T04:51:59.679Z,99562.16
2022-08-10T04:54:06.575Z,99548.59
2022-08-10T04:56:10.366Z,99558.91
2022-08-10T04:58:14.432Z,99564.59
2022-08-10T05:00:18.005Z,99560.53
2022-08-10T05:02:31.037Z,99563.72
2022-08-10T05:04:38.982Z,99562.63
2022-08-10T05:06:42.311Z,99563.94
2022-08-10T05:08:44.967Z,99552.25
2022-08-10T05:10:47.623Z,99550.25
2022-08-10T05:12:50.272Z,99539.44
2022-08-10T05:14:53.106Z,99539.72
2022-08-10T05:16:57.365Z,99537.63
2022-08-10T05:18:59.969Z,99532.97
2022-08-10T05:21:02.724Z,99525.56
2022-08-10T05:23:05.508Z,99518.19
2022-08-10T05:25:17.327Z,99528.84
2022-08-10T05:27:20.002Z,99525.09
2022-08-10T05:29:22.952Z,99523.13
2022-08-10T05:31:25.855Z,99521.72
2022-08-10T05:33:28.481Z,99523.34
2022-08-10T05:35:52.395Z,99531.31
2022-08-10T05:38:11.451Z,99535.50
2022-08-10T05:40:17.819Z,99517.97
2022-08-10T05:42:21.981Z,99538.94
2022-08-10T05:44:25.387Z,99540.66
2022-08-10T05:46:28.608Z,99543.28
2022-08-10T05:48:53.922Z,99542.25
2022-08-10T05:50:54.232Z,99543.06
2022-08-10T05:52:57.844Z,99546.25
2022-08-10T05:55:02.910Z,99546.22
2022-08-10T05:57:06.851Z,99557.09
2022-08-10T05:59:16.026Z,99555.66
2022-08-10T06:01:44.780Z,99553.94
2022-08-10T06:04:10.392Z,99552.78
2022-08-10T06:06:14.218Z,99553.38
2022-08-10T06:08:20.292Z,99552.00
2022-08-10T06:10:31.910Z,99554.78
2022-08-10T06:12:55.207Z,99553.59
2022-08-10T06:15:05.657Z,99546.94
2022-08-10T06:17:14.067Z,99540.81
2022-08-10T06:19:17.727Z,99543.44
2022-08-10T06:21:21.163Z,99546.16
2022-08-10T06:23:25.971Z,99550.78
2022-08-10T06:26:08.519Z,99547.41
2022-08-10T06:27:55.504Z,99548.78
2022-08-10T06:30:01.315Z,99551.09
2022-08-10T06:32:05.945Z,99546.97
2022-08-10T06:34:11.127Z,99558.13
2022-08-10T06:36:15.527Z,99555.03
2022-08-10T06:38:19.151Z,99554.72
2022-08-10T06:40:22.920Z,99560.91
2022-08-10T06:42:34.015Z,99549.50
2022-08-10T06:44:41.112Z,99563.53
2022-08-10T06:46:48.713Z,99568.06
2022-08-10T06:48:55.950Z,99564.63
2022-08-10T06:51:05.299Z,99566.59
2022-08-10T06:53:20.252Z,99560.78
2022-08-10T06:55:39.984Z,99558.59
2022-08-10T06:57:59.404Z,99549.59
2022-08-10T07:00:05.943Z,99552.31
2022-08-10T07:02:13.418Z,99553.25
2022-08-10T07:04:31.936Z,99556.59
2022-08-10T07:06:37.522Z,99556.44
2022-08-10T07:08:41.591Z,99555.31
2022-08-10T07:10:46.843Z,99552.44
2022-08-10T07:12:52.863Z,99556.31
2022-08-10T07:14:57.253Z,99555.09
2022-08-10T07:17:00.631Z,99560.50
2022-08-10T07:19:04.653Z,99558.50
2022-08-10T07:21:08.725Z,99561.53
2022-08-10T07:23:56.789Z,99551.94
2022-08-10T07:25:38.665Z,99561.75
2022-08-10T07:28:00.627Z,99559.44
2022-08-10T07:30:05.195Z,99562.81
2022-08-10T07:32:09.194Z,99550.69
2022-08-10T07:34:21.735Z,99562.22
2022-08-10T07:36:35.728Z,99564.56
2022-08-10T07:38:40.908Z,99558.06
2022-08-10T07:40:45.473Z,99570.47
2022-08-10T07:42:53.995Z,99568.34
2022-08-10T07:44:57.107Z,99579.41
2022-08-10T07:47:04.410Z,99565.31
2022-08-10T07:49:19.232Z,99571.50
2022-08-10T07:51:23.432Z,99575.56
2022-08-10T07:53:30.868Z,99564.34
2022-08-10T07:56:05.317Z,99568.88
2022-08-10T07:58:00.869Z,99569.31
2022-08-10T08:00:08.776Z,99565.16
2022-08-10T08:02:23.837Z,99562.13
2022-08-10T08:04:29.073Z,99559.22
2022-08-10T08:06:33.866Z,99568.41
2022-08-10T08:08:38.923Z,99560.53
2022-08-10T08:10:42.504Z,99567.34
2022-08-10T08:12:46.591Z,99551.53
2022-08-10T08:14:51.351Z,99565.59
2022-08-10T08:16:55.959Z,99561.06
2022-08-10T08:19:26.355Z,99563.84
2022-08-10T08:24:06.313Z,99565.16
2022-08-10T08:24:06.696Z,99559.47
2022-08-10T08:26:15.520Z,99573.59
2022-08-10T08:28:19.202Z,99565.06
2022-08-10T08:30:27.861Z,99566.72
2022-08-10T08:32:33.647Z,99563.13
2022-08-10T08:34:43.040Z,99566.91
2022-08-10T08:36:47.177Z,99565.59
2022-08-10T08:38:51.546Z,99564.81
2022-08-10T08:41:04.157Z,99554.84
2022-08-10T08:43:21.417Z,99560.72
2022-08-10T08:45:58.667Z,99565.63
2022-08-10T08:48:20.110Z,99565.75
2022-08-10T08:50:57.171Z,99556.19
2022-08-10T08:54:02.982Z,99560.22
2022-08-10T08:56:28.672Z,99555.59
2022-08-10T08:59:08.884Z,99557.72
2022-08-10T09:01:43.667Z,99555.44
2022-08-10T09:04:07.063Z,99560.66
2022-08-10T09:06:33.486Z,99561.44
2022-08-10T09:09:06.381Z,99552.81
2022-08-10T09:11:30.991Z,99551.19
2022-08-10T09:13:59.079Z,99554.78
2022-08-10T09:16:24.470Z,99550.09
2022-08-10T09:19:01.936Z,99553.00
2022-08-10T09:21:13.644Z,99545.28
2022-08-10T09:24:04.212Z,99551.63
2022-08-10T09:25:59.722Z,99549.31
2022-08-10T09:28:07.102Z,99547.63
2022-08-10T09:30:13.318Z,99547.94
2022-08-10T09:36:15.122Z,99553.63
2022-08-10T09:36:29.756Z,99555.63
2022-08-10T09:38:01.332Z,99566.13
2022-08-10T09:40:59.769Z,99555.94
2022-08-10T09:43:26.737Z,99569.56
2022-08-10T09:45:35.168Z,99571.25
2022-08-10T09:48:10.016Z,99562.50
2022-08-10T09:50:19.218Z,99565.44
2022-08-10T09:52:40.401Z,99566.75
2022-08-10T09:55:03.930Z,99574.50
2022-08-10T09:57:44.166Z,99573.19
2022-08-10T10:00:05.683Z,99577.59
2022-08-10T10:02:27.868Z,99575.47
2022-08-10T10:05:01.343Z,99576.44
2022-08-10T10:07:08.822Z,99575.38
2022-08-10T10:09:26.632Z,99577.69
2022-08-10T10:11:53.402Z,99574.78
2022-08-10T10:15:10.024Z,99573.75
2022-08-10T10:17:40.673Z,99584.16
2022-08-10T10:19:53.960Z,99573.53
2022-08-10T10:21:56.817Z,99572.13
2022-08-10T10:24:20.435Z,99575.13
2022-08-10T10:27:22.048Z,99562.69
2022-08-10T10:29:58.078Z,99569.94
2022-08-10T10:32:04.216Z,99562.34
2022-08-10T10:34:16.792Z,99568.50
2022-08-10T10:36:21.098Z,99569.00
2022-08-10T10:38:27.683Z,99558.63
2022-08-10T10:40:39.550Z,99560.66
2022-08-10T10:43:01.130Z,99571.41
2022-08-10T10:45:06.963Z,99572.69
2022-08-10T10:47:28.078Z,99582.34
2022-08-10T10:49:36.437Z,99570.63
2022-08-10T10:51:48.437Z,99572.38
2022-08-10T10:54:15.855Z,99576.19
2022-08-10T10:56:28.530Z,99569.91
2022-08-10T10:58:41.431Z,99563.44
2022-08-10T11:00:53.419Z,99573.91
2022-08-10T11:03:08.278Z,99573.59
2022-08-10T11:05:34.003Z,99586.97
2022-08-10T11:07:45.857Z,99570.56
2022-08-10T11:10:05.131Z,99577.56
2022-08-10T11:12:32.220Z,99576.84
2022-08-10T11:14:47.804Z,99583.00
2022-08-10T11:17:01.340Z,99583.44
2022-08-10T11:19:23.748Z,99588.00
2022-08-10T11:21:35.055Z,99582.06
2022-08-10T11:24:42.611Z,99583.22
2022-08-10T11:26:29.298Z,99585.97
2022-08-10T11:28:41.176Z,99574.25
2022-08-10T11:31:07.333Z,99566.81
2022-08-10T11:34:04.094Z,99561.78
2022-08-10T11:36:29.192Z,99549.19
2022-08-10T11:38:42.856Z,99565.97
2022-08-10T11:42:05.208Z,99557.41
2022-08-10T11:43:35.875Z,99562.19
2022-08-10T11:45:52.224Z,99550.91
2022-08-10T11:48:54.289Z,99549.22
2022-08-10T11:50:51.815Z,99550.81
2022-08-10T11:53:07.292Z,99533.53
2022-08-10T11:55:29.444Z,99537.19
2022-08-10T11:57:54.482Z,99543.28
2022-08-10T11:59:58.146Z,99528.09
2022-08-10T12:02:03.051Z,99529.25
2022-08-10T12:04:10.812Z,99519.81
2022-08-10T12:06:33.696Z,99522.22
2022-08-10T12:10:03.841Z,99526.50
2022-08-10T12:11:18.129Z,99516.88
2022-08-10T12:13:31.584Z,99510.00
2022-08-10T12:15:41.634Z,99514.13
2022-08-10T12:17:50.178Z,99513.69
2022-08-10T12:20:06.887Z,99507.84
2022-08-10T12:22:16.420Z,99513.31
2022-08-10T12:24:26.331Z,99513.34
2022-08-10T12:26:38.667Z,99524.03
2022-08-10T12:28:51.917Z,99526.97
2022-08-10T12:30:58.228Z,99527.97
2022-08-10T12:33:08.589Z,99533.56
2022-08-10T12:35:33.146Z,99521.97
2022-08-10T12:37:50.743Z,99534.25
2022-08-10T12:40:33.270Z,99531.06
2022-08-10T12:42:38.837Z,99536.03
2022-08-10T12:44:50.655Z,99518.22
2022-08-10T12:47:01.360Z,99534.47
2022-08-10T12:49:25.259Z,99537.47
2022-08-10T12:51:30.660Z,99534.28
2022-08-10T12:53:39.129Z,99542.00
2022-08-10T12:55:42.985Z,99550.53
2022-08-10T12:57:52.675Z,99544.56
2022-08-10T13:00:00.424Z,99544.75
2022-08-10T13:02:06.187Z,99552.25
2022-08-10T13:04:21.915Z,99552.75
2022-08-10T13:06:29.364Z,99553.22
2022-08-10T13:08:54.365Z,99554.84
2022-08-10T13:11:02.679Z,99556.91
2022-08-10T13:13:05.819Z,99555.81
2022-08-10T13:15:46.083Z,99560.75
2022-08-10T13:17:52.504Z,99555.41
2022-08-10T13:20:03.423Z,99552.63
2022-08-10T13:22:13.198Z,99546.19
2022-08-10T13:24:20.505Z,99543.81
2022-08-10T13:26:26.768Z,99546.19
2022-08-10T13:29:02.012Z,99548.16
2022-08-10T13:31:11.714Z,99561.75
2022-08-10T13:34:03.603Z,99569.47
2022-08-10T13:35:56.228Z,99568.16
2022-08-10T13:38:03.944Z,99564.47
2022-08-10T13:40:11.838Z,99563.31
2022-08-10T13:42:15.651Z,99566.53
2022-08-10T13:44:43.549Z,99577.00
2022-08-10T13:46:55.167Z,99573.69
2022-08-10T13:49:03.373Z,99569.72
2022-08-10T13:51:07.519Z,99582.31
2022-08-10T13:53:15.842Z,99569.09
2022-08-10T13:55:24.240Z,99572.38
2022-08-10T13:57:37.012Z,99578.44
2022-08-10T14:00:34.048Z,99578.94
2022-08-10T14:02:14.514Z,99578.53
2022-08-10T14:04:19.971Z,99570.44
2022-08-10T14:06:29.610Z,99569.66
2022-08-10T14:08:35.542Z,99568.47
2022-08-10T14:11:08.644Z,99576.03
2022-08-10T14:13:07.753Z,99576.03
2022-08-10T14:15:15.803Z,99578.91
2022-08-10T14:17:22.460Z,99582.03
2022-08-10T14:19:27.824Z,99586.03
2022-08-10T14:21:39.480Z,99585.59
2022-08-10T14:23:52.422Z,99585.31
2022-08-10T14:26:04.165Z,99584.59
2022-08-10T14:28:09.691Z,99583.53
2022-08-10T14:30:17.179Z,99592.47
2022-08-10T14:32:24.049Z,99594.53
2022-08-10T14:36:14.786Z,99594.59
2022-08-10T14:37:06.144Z,99600.28
2022-08-10T14:39:12.658Z,99598.31
2022-08-10T14:42:04.500Z,99596.38
2022-08-10T14:44:01.084Z,99597.63
2022-08-10T14:46:19.813Z,99592.44
2022-08-10T14:48:32.842Z,99594.09
2022-08-10T14:50:36.160Z,99589.69
2022-08-10T14:52:44.419Z,99592.91
2022-08-10T14:54:50.624Z,99588.13
2022-08-10T14:56:53.893Z,99586.53
2022-08-10T14:59:09.392Z,99587.75
2022-08-10T15:01:19.081Z,99586.94
2022-08-10T15:03:59.401Z,99598.16
2022-08-10T15:05:50.537Z,99597.38
2022-08-10T15:07:58.712Z,99589.78
2022-08-10T15:10:04.622Z,99595.38
2022-08-10T15:12:14.034Z,99597.38
2022-08-10T15:14:43.428Z,99603.78
2022-08-10T15:16:47.556Z,99597.78
2022-08-10T15:18:57.810Z,99598.22
2022-08-10T15:21:17.097Z,99605.78
2022-08-10T15:23:30.833Z,99597.41
2022-08-10T15:25:57.788Z,99589.41
2022-08-10T15:28:06.658Z,99594.19
2022-08-10T15:30:12.122Z,99589.78
2022-08-10T15:32:33.350Z,99587.00
2022-08-10T15:34:55.041Z,99587.41
2022-08-10T15:37:40.564Z,99586.59
2022-08-10T15:40:25.174Z,99592.59
2022-08-10T15:42:10.606Z,99592.22
2022-08-10T15:44:13.410Z,99602.63
2022-08-10T15:46:30.073Z,99602.25
2022-08-10T15:48:48.271Z,99595.84
2022-08-10T15:51:01.058Z,99607.03
2022-08-10T15:53:16.791Z,99610.25
2022-08-10T15:55:41.282Z,99602.66
2022-08-10T15:57:56.982Z,99591.84
2022-08-10T16:00:07.947Z,99597.88
2022-08-10T16:02:17.767Z,99601.06
2022-08-10T16:04:32.400Z,99591.06
2022-08-10T16:06:42.095Z,99597.47
2022-08-10T16:08:57.210Z,99594.22
2022-08-10T16:11:16.794Z,99596.63
2022-08-10T16:13:50.663Z,99590.22
2022-08-10T16:15:53.253Z,99599.41
2022-08-10T16:18:01.691Z,99600.97
2022-08-10T16:20:05.620Z,99591.78
2022-08-10T16:22:36.466Z,99603.75
2022-08-10T16:24:39.004Z,99598.94
2022-08-10T16:26:46.625Z,99599.72
2022-08-10T16:28:56.426Z,99598.13
2022-08-10T16:31:01.949Z,99582.88
2022-08-10T16:33:05.579Z,99587.72
2022-08-10T16:35:15.764Z,99592.47
2022-08-10T16:37:21.190Z,99595.63
2022-08-10T16:39:58.506Z,99588.81
2022-08-10T16:42:05.013Z,99590.38
2022-08-10T16:44:11.154Z,99591.59
2022-08-10T16:46:16.992Z,99596.75
2022-08-10T16:48:49.418Z,99602.69
2022-08-10T16:50:55.812Z,99598.69
2022-08-10T16:53:02.379Z,99602.66
2022-08-10T16:55:23.390Z,99605.81
2022-08-10T16:57:30.171Z,99603.00
2022-08-10T16:59:38.030Z,99602.19
2022-08-10T17:01:42.161Z,99609.75
2022-08-10T17:04:07.862Z,99613.34
2022-08-10T17:06:18.100Z,99615.34
2022-08-10T17:08:22.935Z,99618.09
2022-08-10T17:10:29.767Z,99611.69
2022-08-10T17:12:33.848Z,99619.25
2022-08-10T17:14:39.404Z,99624.06
2022-08-10T17:16:45.392Z,99618.84
2022-08-10T17:18:48.758Z,99625.22
2022-08-10T17:20:51.674Z,99627.53
2022-08-10T17:23:00.621Z,99633.91
2022-08-10T17:25:11.417Z,99642.66
2022-08-10T17:28:05.880Z,99649.38
2022-08-10T17:29:58.691Z,99642.19
2022-08-10T17:32:15.968Z,99652.09
2022-08-10T17:34:24.999Z,99646.88
2022-08-10T17:36:32.851Z,99646.03
2022-08-10T17:38:38.375Z,99636.44
2022-08-10T17:41:11.889Z,99641.59
2022-08-10T17:44:00.805Z,99639.19
2022-08-10T17:45:52.213Z,99631.19
2022-08-10T17:47:58.438Z,99634.75
2022-08-10T17:50:01.647Z,99634.34
2022-08-10T17:52:10.893Z,99635.16
2022-08-10T17:54:28.213Z,99637.97
2022-08-10T17:56:34.750Z,99636.31
2022-08-10T17:58:46.427Z,99641.13
2022-08-10T18:00:51.815Z,99633.16
2022-08-10T18:02:55.394Z,99630.75
2022-08-10T18:04:59.877Z,99627.53
2022-08-10T18:07:03.659Z,99627.94
2022-08-10T18:09:17.707Z,99625.53
2022-08-10T18:11:20.717Z,99633.53
2022-08-10T18:13:25.940Z,99637.91
2022-08-10T18:15:31.845Z,99633.13
2022-08-10T18:17:41.086Z,99637.97
2022-08-10T18:19:47.075Z,99650.66
2022-08-10T18:21:50.748Z,99647.13
2022-08-10T18:23:59.525Z,99647.91
2022-08-10T18:26:06.454Z,99653.88
2022-08-10T18:28:15.582Z,99651.09
2022-08-10T18:30:20.018Z,99641.53
2022-08-10T18:32:26.306Z,99652.69
2022-08-10T18:34:32.157Z,99655.88
2022-08-10T18:36:40.882Z,99635.00
2022-08-10T18:38:47.906Z,99637.84
2022-08-10T18:41:02.923Z,99640.59
2022-08-10T18:44:06.735Z,99639.78
2022-08-10T18:45:36.783Z,99640.88
2022-08-10T18:47:59.101Z,99643.22
2022-08-10T18:50:17.423Z,99646.41
2022-08-10T18:52:23.981Z,99639.22
2022-08-10T18:54:44.392Z,99636.41
2022-08-10T18:56:59.906Z,99639.94
2022-08-10T18:59:38.597Z,99650.72
2022-08-10T19:02:04.942Z,99651.94
2022-08-10T19:04:27.792Z,99655.88
2022-08-10T19:07:00.999Z,99661.03
2022-08-10T19:09:47.411Z,99663.41
2022-08-10T19:11:56.519Z,99660.59
2022-08-10T19:14:07.739Z,99663.03
2022-08-10T19:16:35.607Z,99662.31
2022-08-10T19:18:47.856Z,99652.72
2022-08-10T19:20:57.651Z,99647.09
2022-08-10T19:23:15.422Z,99650.28
2022-08-10T19:26:39.329Z,99663.00
2022-08-10T19:28:11.699Z,99653.06
2022-08-10T19:30:18.426Z,99653.44
2022-08-10T19:32:32.664Z,99659.06
2022-08-10T19:34:38.120Z,99660.66
2022-08-10T19:36:55.365Z,99666.66
2022-08-10T19:39:29.322Z,99659.06
2022-08-10T19:41:44.720Z,99657.44
2022-08-10T19:44:03.376Z,99668.97
2022-08-10T19:46:30.517Z,99665.31
2022-08-10T19:48:52.751Z,99663.72
2022-08-10T19:51:04.716Z,99659.28
2022-08-10T19:53:19.687Z,99654.84
2022-08-10T19:55:33.606Z,99661.59
2022-08-10T19:57:44.460Z,99665.09
2022-08-10T20:00:06.270Z,99664.31
2022-08-10T20:02:23.584Z,99669.41
2022-08-10T20:04:33.402Z,99663.03
2022-08-10T20:06:47.887Z,99673.75
2022-08-10T20:09:01.920Z,99666.59
2022-08-10T20:11:45.531Z,99669.75
2022-08-10T20:13:51.486Z,99668.16
2022-08-10T20:16:03.191Z,99663.00
2022-08-10T20:18:15.243Z,99662.59
2022-08-10T20:20:48.572Z,99663.44
2022-08-10T20:23:02.036Z,99665.78
2022-08-10T20:25:14.060Z,99660.22
2022-08-10T20:28:14.584Z,99663.38
2022-08-10T20:30:01.200Z,99661.38
2022-08-10T20:32:10.755Z,99653.03
2022-08-10T20:34:42.515Z,99659.00
2022-08-10T20:37:02.410Z,99658.22
2022-08-10T20:39:16.769Z,99658.69
2022-08-10T20:41:55.272Z,99663.88
2022-08-10T20:44:12.619Z,99661.09
2022-08-10T20:46:25.090Z,99660.34
2022-08-10T20:48:40.736Z,99660.34
2022-08-10T20:50:57.283Z,99667.97
2022-08-10T20:53:23.390Z,99667.16
2022-08-10T20:55:33.974Z,99664.81
2022-08-10T20:58:27.031Z,99662.88
2022-08-10T21:01:12.578Z,99657.66
2022-08-10T21:03:43.686Z,99663.22
2022-08-10T21:06:04.980Z,99666.84
2022-08-10T21:08:58.634Z,99664.84
2022-08-10T21:11:07.510Z,99662.06
2022-08-10T21:13:21.692Z,99665.28
2022-08-10T21:15:55.465Z,99662.09
2022-08-10T21:18:20.451Z,99660.94
2022-08-10T21:20:47.028Z,99650.50
2022-08-10T21:22:51.767Z,99645.34
2022-08-10T21:25:05.250Z,99648.50
2022-08-10T21:27:41.821Z,99646.81
2022-08-10T21:29:53.899Z,99655.16
2022-08-10T21:32:31.831Z,99642.38
2022-08-10T21:34:54.388Z,99643.59
2022-08-10T21:37:22.895Z,99648.34
2022-08-10T21:39:52.878Z,99656.28
2022-08-10T21:42:43.659Z,99655.53
2022-08-10T21:45:58.104Z,99656.75
2022-08-10T21:48:40.580Z,99660.72
2022-08-10T21:51:16.574Z,99653.94
2022-08-10T21:53:55.205Z,99657.09
2022-08-10T21:56:23.071Z,99653.53
2022-08-10T21:59:10.022Z,99665.88
2022-08-10T22:01:39.757Z,99662.66
2022-08-10T22:04:02.708Z,99668.25
2022-08-10T22:06:24.465Z,99677.06
2022-08-10T22:08:55.978Z,99674.66
2022-08-10T22:11:20.179Z,99679.13
2022-08-10T22:13:42.922Z,99680.66
2022-08-10T22:16:14.585Z,99680.28
2022-08-10T22:18:53.713Z,99671.88
2022-08-10T22:21:53.086Z,99673.84
2022-08-10T22:24:34.776Z,99671.06
2022-08-10T22:27:12.888Z,99669.41
2022-08-10T22:29:58.457Z,99670.16
2022-08-10T22:32:39.651Z,99676.50
2022-08-10T22:35:46.672Z,99677.66
2022-08-10T22:38:25.063Z,99674.09
2022-08-10T22:40:46.403Z,99676.88
2022-08-10T22:43:12.193Z,99679.22
2022-08-10T22:45:37.392Z,99678.44
2022-08-10T22:47:58.441Z,99681.22
2022-08-10T22:50:07.676Z,99685.16
2022-08-10T22:52:17.107Z,99689.91
2022-08-10T22:55:06.459Z,99692.72
2022-08-10T22:57:34.645Z,99697.41
2022-08-10T22:59:37.441Z,99697.81
2022-08-10T23:02:07.450Z,99697.81
2022-08-10T23:04:34.775Z,99699.34
2022-08-10T23:06:40.265Z,99695.34
2022-08-10T23:08:50.525Z,99703.69
2022-08-10T23:10:55.859Z,99699.31
2022-08-10T23:13:05.870Z,99713.25
2022-08-10T23:15:37.411Z,99717.22
2022-08-10T23:18:01.214Z,99719.94
2022-08-10T23:20:10.972Z,99717.59
2022-08-10T23:22:16.520Z,99726.75
2022-08-10T23:24:35.521Z,99723.59
2022-08-10T23:26:39.340Z,99732.38
2022-08-10T23:28:58.454Z,99729.97
2022-08-10T23:31:03.014Z,99732.31
2022-08-10T23:33:08.622Z,99733.94
2022-08-10T23:36:29.523Z,99739.50
2022-08-10T23:37:40.699Z,99741.09
2022-08-10T23:39:48.619Z,99736.31
2022-08-10T23:41:55.299Z,99745.13
2022-08-10T23:44:04.127Z,99749.50
2022-08-10T23:46:09.176Z,99749.88
2022-08-10T23:48:17.994Z,99755.03
2022-08-10T23:50:22.493Z,99751.44
2022-08-10T23:52:32.211Z,99749.03
2022-08-10T23:54:41.630Z,99750.16
2022-08-10T23:56:48.147Z,99748.13
2022-08-10T23:58:54.416Z,99753.63
